ADDS TAF Board (Experimental) INFO Settings
IDs: Format: Expanded Condensed

KBWI - Baltimore-Washington, MD, US

Issued at 1349 UTC 31 Aug 2016
Updated at 1416 UTC 31 Aug 2016
Time1354Z 31/15Z 31/16Z 31/17Z 31/18Z 31/19Z 31/20Z 31/21Z 31/22Z 31/23Z 01/00Z 01/01Z 01/02Z 01/03Z
Type OBS PRVL PRVL PRVL PRVL PRVL PRVL PRVL PRVL PRVL PRVL PRVL PRVL PRVL
VIS 10 >6 >6 >6 >6 >6 >6 >6 >6 >6 >6 >6 >6 >6
CIG -- -- -- -- -- -- -- -- -- -- 250 250 250 250
Cover SCT SCT SCT SCT SCT SCT SCT SCT SCT SCT BKN BKN BKN BKN
FltCat VFR VFR VFR VFR VFR VFR VFR VFR VFR VFR VFR VFR VFR VFR
WX -- -- -- -- -- -- -- -- -- -- VCTS VCTS -- --
WDir VRB VRB VRB VRB VRB VRB VRB VRB VRB VRB 160 160 170 170
WSpd 0 3 3 3 3 3 3 3 3 3 5 5 4 4
WGst -- -- -- -- -- -- -- -- -- -- -- -- -- --
R04/22
XWnd VRB VRB VRB VRB VRB VRB VRB VRB VRB VRB -4 -4 -3 -3
HWnd VRB VRB VRB VRB VRB VRB VRB VRB VRB VRB -3 -3 -3 -3
R10/28
XWnd VRB VRB VRB VRB VRB VRB VRB VRB VRB VRB -5 -5 -4 -4
HWnd VRB VRB VRB VRB VRB VRB VRB VRB VRB VRB 2 2 1 1
R15/33
XWnd VRB VRB VRB VRB VRB VRB VRB VRB VRB VRB -1 -1 -2 -2
HWnd VRB VRB VRB VRB VRB VRB VRB VRB VRB VRB 5 5 4 4

Raw TAF
KBWI 311349Z 3114/0118 VRB03KT P6SM FEW060 SCT250
  FM010000 16005KT P6SM VCTS SCT060CB BKN250
  FM010200 17004KT P6SM SCT070 BKN250
  FM010800 VRB03KT P6SM BKN080 BKN090
  FM011500 35006KT P6SM BKN070


Raw METAR
KBWI 311354Z 00000KT 10SM FEW140 SCT250 28/19 A3000 RMK AO2 SLP157 T02780194
KBWI 311254Z 00000KT 10SM FEW140 SCT250 25/19 A3000 RMK AO2 SLP158 T02500194
KBWI 311154Z 00000KT 10SM FEW040 FEW140 SCT250 22/18 A3001 RMK AO2 SLP161 T02170183 10222 20183 58003

METAR Board
Radar Display
Forecast Discussion

TAF Board Legend

Potential Impact
Threat None Slight Moderate High
Visibility (sm) ≥5.1 5.1>X≥3 3>X≥1 <1
Ceiling (100 ft) ≥30.1 30.1>X≥10 10>X≥5 <5
Wind Speed (kt) <10 10≤X<20 20≤X<30 ≥30
Wind Gust (kt) <15 15≤X<25 25≤X<35 ≥35
Weather No Wx Reported VCTS,-TS,-FZRA,SN TS,FZRA +TS,+FZRA,+SN